createdAt,value
2022-10-11T00:00:45.259Z,34.03
2022-10-11T00:06:03.795Z,27.37
2022-10-11T00:11:21.026Z,23.70
2022-10-11T00:16:40.930Z,27.17
2022-10-11T00:21:57.352Z,22.97
2022-10-11T00:27:15.174Z,22.90
2022-10-11T00:32:30.850Z,20.23
2022-10-11T00:37:47.345Z,26.50
2022-10-11T00:43:04.660Z,23.30
2022-10-11T00:48:32.957Z,26.83
2022-10-11T00:53:48.982Z,18.30
2022-10-11T00:59:08.571Z,22.43
2022-10-11T01:04:24.772Z,23.50
2022-10-11T01:09:41.360Z,30.07
2022-10-11T01:15:16.460Z,32.93
2022-10-11T01:20:41.621Z,19.10
2022-10-11T01:26:07.397Z,20.10
2022-10-11T01:31:26.615Z,17.50
2022-10-11T01:37:06.332Z,18.13
2022-10-11T01:42:21.876Z,23.40
2022-10-11T01:47:39.189Z,19.80
2022-10-11T01:52:55.136Z,12.63
2022-10-11T01:58:36.419Z,25.60
2022-10-11T02:04:33.950Z,14.53
2022-10-11T02:10:26.366Z,21.10
2022-10-11T02:15:42.559Z,24.57
2022-10-11T02:21:00.864Z,19.50
2022-10-11T02:26:18.158Z,18.30
2022-10-11T02:31:33.891Z,20.30
2022-10-11T02:36:51.858Z,23.40
2022-10-11T02:42:11.942Z,22.27
2022-10-11T02:47:30.486Z,18.20
2022-10-11T02:52:47.392Z,22.67
2022-10-11T02:58:03.431Z,25.03
2022-10-11T03:03:23.023Z,20.67
2022-10-11T03:08:39.801Z,15.90
2022-10-11T03:13:59.493Z,20.43
2022-10-11T03:19:19.141Z,18.60
2022-10-11T03:24:36.071Z,19.50
2022-10-11T03:29:55.896Z,20.40
2022-10-11T03:35:12.525Z,25.20
2022-10-11T03:40:29.119Z,30.27
2022-10-11T03:45:45.769Z,17.90
2022-10-11T03:51:03.551Z,31.90
2022-10-11T03:56:18.958Z,24.77
2022-10-11T04:01:38.098Z,23.23
2022-10-11T04:06:56.378Z,19.73
2022-10-11T04:12:12.536Z,25.87
2022-10-11T04:17:29.739Z,18.37
2022-10-11T04:22:45.340Z,23.53
2022-10-11T04:28:01.950Z,21.20
2022-10-11T04:33:18.739Z,17.80
2022-10-11T04:38:35.148Z,17.77
2022-10-11T04:43:54.784Z,31.37
2022-10-11T04:49:10.018Z,21.33
2022-10-11T04:54:26.754Z,26.03
2022-10-11T04:59:46.682Z,19.07
2022-10-11T05:05:06.927Z,16.90
2022-10-11T05:10:22.872Z,23.73
2022-10-11T05:15:39.677Z,20.73
2022-10-11T05:21:14.242Z,23.90
2022-10-11T05:26:30.752Z,19.23
2022-10-11T05:31:46.989Z,20.73
2022-10-11T05:37:03.722Z,26.00
2022-10-11T05:42:20.251Z,26.30
2022-10-11T05:47:36.812Z,30.80
2022-10-11T05:52:56.068Z,28.53
2022-10-11T05:58:13.510Z,26.57
2022-10-11T06:03:29.884Z,28.67
2022-10-11T06:08:46.531Z,35.90
2022-10-11T06:14:03.119Z,26.83
2022-10-11T06:19:42.542Z,38.13
2022-10-11T06:25:12.569Z,27.87
2022-10-11T06:30:45.708Z,19.90
2022-10-11T06:36:18.370Z,29.97
2022-10-11T06:41:48.801Z,30.67
2022-10-11T06:47:21.703Z,20.77
2022-10-11T06:53:09.264Z,23.37
2022-10-11T06:58:58.107Z,37.57
2022-10-11T07:04:28.087Z,31.53
2022-10-11T07:09:57.494Z,36.03
2022-10-11T07:15:37.994Z,20.97
2022-10-11T07:21:12.148Z,24.93
2022-10-11T07:26:45.313Z,19.77
2022-10-11T07:32:16.277Z,20.40
2022-10-11T07:37:57.596Z,29.43
2022-10-11T07:43:27.654Z,35.37
2022-10-11T07:48:57.082Z,28.07
2022-10-11T07:54:35.643Z,24.20
2022-10-11T08:00:11.928Z,25.87
2022-10-11T08:05:44.878Z,25.47
2022-10-11T08:11:36.574Z,21.23
2022-10-11T08:17:05.834Z,17.00
2022-10-11T08:22:39.389Z,15.83
2022-10-11T08:28:17.425Z,21.63
2022-10-11T08:33:58.772Z,18.10
2022-10-11T08:39:38.872Z,25.07
2022-10-11T08:45:50.135Z,20.23
2022-10-11T08:52:00.011Z,16.20
2022-10-11T08:57:04.055Z,15.03
2022-10-11T09:03:06.827Z,16.50
2022-10-11T09:08:22.166Z,16.83
2022-10-11T09:13:52.456Z,19.20
2022-10-11T09:19:17.458Z,17.03
2022-10-11T09:24:25.734Z,22.70
2022-10-11T09:30:06.267Z,27.50
2022-10-11T09:35:18.774Z,12.10
2022-10-11T09:40:29.567Z,16.83
2022-10-11T09:45:31.224Z,24.53
2022-10-11T09:50:32.915Z,13.43
2022-10-11T09:55:43.506Z,20.37
2022-10-11T10:00:45.160Z,23.17
2022-10-11T10:05:46.895Z,15.00
2022-10-11T10:10:59.571Z,16.50
2022-10-11T10:16:02.648Z,10.60
2022-10-11T10:21:04.774Z,14.07
2022-10-11T10:26:15.139Z,15.07
2022-10-11T10:31:22.311Z,14.17
2022-10-11T10:36:27.726Z,12.20
2022-10-11T10:41:29.428Z,10.40
2022-10-11T10:46:30.936Z,17.60
2022-10-11T10:52:06.707Z,9.30
2022-10-11T10:57:15.401Z,12.97
2022-10-11T11:02:39.665Z,12.87
2022-10-11T11:07:49.384Z,10.83
2022-10-11T11:12:56.931Z,11.43
2022-10-11T11:18:15.009Z,16.00
2022-10-11T11:23:35.629Z,10.17
2022-10-11T11:28:49.873Z,18.10
2022-10-11T11:34:13.754Z,14.90
2022-10-11T11:39:19.173Z,13.60
2022-10-11T11:44:27.273Z,17.63
2022-10-11T11:54:54.314Z,10.30
2022-10-11T12:00:07.688Z,10.17
2022-10-11T12:05:20.956Z,17.33
2022-10-11T12:10:39.825Z,9.67
2022-10-11T12:16:12.369Z,12.33
2022-10-11T12:21:20.644Z,11.93
2022-10-11T12:26:28.269Z,8.10
2022-10-11T12:31:34.625Z,11.20
2022-10-11T12:36:37.362Z,10.90
2022-10-11T12:41:53.524Z,13.50
2022-10-11T12:46:55.037Z,15.27
2022-10-11T12:52:03.859Z,11.43
2022-10-11T12:57:11.839Z,17.80
2022-10-11T13:02:29.848Z,10.27
2022-10-11T13:07:31.461Z,10.50
2022-10-11T13:12:37.566Z,14.10
2022-10-11T13:17:39.470Z,9.67
2022-10-11T13:22:41.281Z,10.00
2022-10-11T13:27:42.922Z,13.47
2022-10-11T13:32:44.547Z,15.60
2022-10-11T13:37:46.905Z,8.33
2022-10-11T13:42:49.285Z,15.90
2022-10-11T13:47:51.505Z,9.93
2022-10-11T13:53:04.718Z,14.63
2022-10-11T13:58:14.967Z,14.03
2022-10-11T14:03:19.980Z,12.30
2022-10-11T14:08:30.552Z,15.23
2022-10-11T14:13:34.082Z,10.00
2022-10-11T14:18:49.752Z,12.57
2022-10-11T14:24:11.972Z,17.70
2022-10-11T14:29:31.219Z,8.47
2022-10-11T14:34:33.026Z,8.97
2022-10-11T14:39:34.753Z,10.10
2022-10-11T14:44:36.469Z,10.80
2022-10-11T14:49:38.131Z,10.07
2022-10-11T14:54:39.763Z,8.10
2022-10-11T14:59:43.182Z,8.37
2022-10-11T15:04:44.831Z,14.50
2022-10-11T15:09:46.530Z,8.80
2022-10-11T15:14:48.191Z,18.20
2022-10-11T15:19:50.730Z,21.03
2022-10-11T15:24:52.367Z,12.17
2022-10-11T15:29:54.011Z,10.23
2022-10-11T15:34:55.632Z,12.93
2022-10-11T15:39:57.281Z,13.37
2022-10-11T15:44:58.974Z,12.63
2022-10-11T15:50:00.698Z,28.53
2022-10-11T15:55:02.379Z,18.97
2022-10-11T16:00:04.670Z,14.40
2022-10-11T16:05:13.465Z,11.97
2022-10-11T16:10:15.268Z,8.43
2022-10-11T16:15:17.070Z,10.93
2022-10-11T16:20:22.248Z,13.03
2022-10-11T16:25:24.025Z,12.57
2022-10-11T16:30:26.000Z,13.67
2022-10-11T16:35:32.253Z,22.07
2022-10-11T16:40:35.919Z,15.33
2022-10-11T16:45:37.869Z,17.30
2022-10-11T16:50:39.927Z,35.60
2022-10-11T16:55:41.680Z,34.40
2022-10-11T17:00:43.447Z,23.40
2022-10-11T17:05:45.162Z,20.90
2022-10-11T17:10:52.595Z,27.60
2022-10-11T17:15:54.239Z,25.83
2022-10-11T17:21:07.009Z,23.73
2022-10-11T17:26:11.547Z,17.50
2022-10-11T17:31:13.466Z,22.67
2022-10-11T17:36:24.168Z,17.10
2022-10-11T17:41:30.878Z,23.00
2022-10-11T17:46:33.791Z,35.77
2022-10-11T17:51:35.920Z,33.43
2022-10-11T17:56:38.281Z,35.93
2022-10-11T18:01:40.136Z,34.73
2022-10-11T18:06:43.467Z,26.27
2022-10-11T18:11:45.143Z,28.60
2022-10-11T18:16:46.898Z,24.47
2022-10-11T18:21:48.520Z,32.10
2022-10-11T18:26:50.195Z,32.83
2022-10-11T18:31:52.001Z,58.40
2022-10-11T18:36:53.698Z,61.63
2022-10-11T18:41:55.459Z,62.97
2022-10-11T18:46:58.463Z,74.40
2022-10-11T18:52:00.142Z,49.73
2022-10-11T18:57:01.803Z,46.40
2022-10-11T19:02:04.827Z,70.53
2022-10-11T19:07:06.539Z,75.60
2022-10-11T19:12:08.273Z,53.50
2022-10-11T19:17:12.222Z,35.60
2022-10-11T19:22:13.890Z,28.23
2022-10-11T19:27:15.546Z,31.80
2022-10-11T19:32:17.213Z,33.93
2022-10-11T19:37:18.908Z,32.97
2022-10-11T19:42:20.571Z,39.07
2022-10-11T19:47:22.303Z,27.30
2022-10-11T19:52:23.979Z,26.67
2022-10-11T19:57:25.611Z,19.40
2022-10-11T20:02:27.260Z,18.80
2022-10-11T20:07:29.049Z,24.63
2022-10-11T20:12:31.160Z,27.80
2022-10-11T20:17:48.294Z,26.43
2022-10-11T20:22:49.953Z,22.77
2022-10-11T20:27:51.631Z,28.73
2022-10-11T20:32:53.315Z,28.80
2022-10-11T20:37:54.931Z,26.40
2022-10-11T20:42:56.566Z,39.17
2022-10-11T20:47:59.135Z,32.97
2022-10-11T20:53:00.769Z,25.73
2022-10-11T20:58:02.414Z,28.20
2022-10-11T21:03:04.078Z,30.77
2022-10-11T21:08:05.715Z,20.17
2022-10-11T21:13:07.413Z,21.60
2022-10-11T21:18:09.076Z,19.87
2022-10-11T21:23:11.072Z,11.23
2022-10-11T21:28:12.935Z,15.17
2022-10-11T21:33:14.628Z,15.93
2022-10-11T21:38:16.275Z,29.93
2022-10-11T21:43:17.936Z,20.63
2022-10-11T21:48:19.581Z,15.50
2022-10-11T21:53:21.307Z,18.00
2022-10-11T21:58:22.946Z,26.43
2022-10-11T22:03:25.350Z,30.90
2022-10-11T22:08:26.997Z,43.30
2022-10-11T22:13:29.411Z,25.47
2022-10-11T22:18:33.653Z,31.47
2022-10-11T22:23:35.603Z,16.53
2022-10-11T22:28:37.275Z,18.43
2022-10-11T22:33:39.156Z,25.00
2022-10-11T22:38:41.954Z,12.33
2022-10-11T22:43:43.584Z,11.63
2022-10-11T22:48:45.223Z,16.23
2022-10-11T22:53:46.923Z,11.40
2022-10-11T22:58:48.589Z,17.17
2022-10-11T23:03:50.799Z,11.60
2022-10-11T23:08:52.516Z,10.00
2022-10-11T23:13:54.162Z,11.10
2022-10-11T23:18:55.881Z,13.07
2022-10-11T23:23:57.502Z,8.60
2022-10-11T23:28:59.130Z,6.17
2022-10-11T23:34:00.779Z,9.70
2022-10-11T23:39:02.411Z,10.70
2022-10-11T23:44:04.080Z,10.27
2022-10-11T23:49:05.705Z,11.83
2022-10-11T23:54:07.407Z,9.50
2022-10-11T23:59:09.089Z,15.77
